aviador You're here:

LFSX Decoded Metar

LUXEUIL in FRANCE
Report Time2018-05-28 07:30:00
UTC Time2018-05-28 07:57:36
Flight Rules vfr VFR
WindVRB at 02 kt
Visibility9999 m
Phenomena:N/A
Clouds:N/A
Expected CloudBase > 1,200 ft AGL from Temp-Dew spread
CeilingNone
Temp19°C (ISA +6)
Dew Point16°C (83% RH)
QNH1017 hPa
Density Alt1,683 ft
Elevation896 ft
Report Wrong Elevation
Raw Report
LFSX 280730Z AUTO VRB02KT 9999 NCD 19/16 Q1017 NOSIG=

Extra information for LFSX:More info

Metar Taf Metar & Taf Last 4 Metars F.Rules Stats Wind Profile Meteogram Temp Stats Airport Information Weather charts Add Link Nearby VenuesMetar ALERT Operation Metar Decoded Social comments